sensor_id;sensor_type;location;lat;lon;timestamp;P1;durP1;ratioP1;P2;durP2;ratioP2
82787;SDS011;72529;51.786;4.662;2023-11-22T00:00:13;19.25;;;18.87;;
82787;SDS011;72529;51.786;4.662;2023-11-22T00:02:39;18.23;;;17.96;;
82787;SDS011;72529;51.786;4.662;2023-11-22T00:05:05;18.71;;;18.36;;
82787;SDS011;72529;51.786;4.662;2023-11-22T00:07:31;18.06;;;17.82;;
82787;SDS011;72529;51.786;4.662;2023-11-22T00:09:57;18.22;;;17.85;;
82787;SDS011;72529;51.786;4.662;2023-11-22T00:12:23;17.57;;;17.25;;
82787;SDS011;72529;51.786;4.662;2023-11-22T00:14:49;18.41;;;18.05;;
82787;SDS011;72529;51.786;4.662;2023-11-22T00:17:15;17.28;;;17.15;;
82787;SDS011;72529;51.786;4.662;2023-11-22T00:19:44;17.73;;;17.64;;
82787;SDS011;72529;51.786;4.662;2023-11-22T00:22:10;17.46;;;17.21;;
82787;SDS011;72529;51.786;4.662;2023-11-22T00:24:41;17.87;;;17.50;;
82787;SDS011;72529;51.786;4.662;2023-11-22T00:27:07;17.96;;;17.61;;
82787;SDS011;72529;51.786;4.662;2023-11-22T00:29:33;18.35;;;17.96;;
82787;SDS011;72529;51.786;4.662;2023-11-22T00:31:59;18.18;;;17.83;;
82787;SDS011;72529;51.786;4.662;2023-11-22T00:34:25;17.82;;;17.49;;
82787;SDS011;72529;51.786;4.662;2023-11-22T00:36:51;18.06;;;17.81;;
82787;SDS011;72529;51.786;4.662;2023-11-22T00:39:17;18.64;;;18.47;;
82787;SDS011;72529;51.786;4.662;2023-11-22T00:41:43;17.90;;;17.64;;
82787;SDS011;72529;51.786;4.662;2023-11-22T00:44:09;17.85;;;17.68;;
82787;SDS011;72529;51.786;4.662;2023-11-22T00:46:35;18.32;;;18.13;;
82787;SDS011;72529;51.786;4.662;2023-11-22T00:49:02;18.12;;;17.87;;
82787;SDS011;72529;51.786;4.662;2023-11-22T00:51:29;17.37;;;17.13;;
82787;SDS011;72529;51.786;4.662;2023-11-22T00:53:56;18.04;;;17.72;;
82787;SDS011;72529;51.786;4.662;2023-11-22T00:56:22;17.51;;;17.23;;
82787;SDS011;72529;51.786;4.662;2023-11-22T00:58:48;17.32;;;17.16;;
82787;SDS011;72529;51.786;4.662;2023-11-22T01:01:15;17.43;;;17.32;;
82787;SDS011;72529;51.786;4.662;2023-11-22T01:03:41;17.77;;;17.53;;
82787;SDS011;72529;51.786;4.662;2023-11-22T01:06:06;18.40;;;17.99;;
82787;SDS011;72529;51.786;4.662;2023-11-22T01:08:32;17.95;;;17.58;;
82787;SDS011;72529;51.786;4.662;2023-11-22T01:10:57;18.50;;;18.22;;
82787;SDS011;72529;51.786;4.662;2023-11-22T01:13:23;17.58;;;17.31;;
82787;SDS011;72529;51.786;4.662;2023-11-22T01:15:48;17.52;;;17.26;;
82787;SDS011;72529;51.786;4.662;2023-11-22T01:18:14;17.32;;;16.96;;
82787;SDS011;72529;51.786;4.662;2023-11-22T01:20:39;17.68;;;17.52;;
82787;SDS011;72529;51.786;4.662;2023-11-22T01:23:05;17.39;;;17.26;;
82787;SDS011;72529;51.786;4.662;2023-11-22T01:25:30;18.29;;;17.87;;
82787;SDS011;72529;51.786;4.662;2023-11-22T01:27:56;17.48;;;17.32;;
82787;SDS011;72529;51.786;4.662;2023-11-22T01:30:21;18.33;;;17.93;;
82787;SDS011;72529;51.786;4.662;2023-11-22T01:32:47;17.91;;;17.57;;
82787;SDS011;72529;51.786;4.662;2023-11-22T01:35:14;18.06;;;17.74;;
82787;SDS011;72529;51.786;4.662;2023-11-22T01:37:40;18.00;;;17.68;;
82787;SDS011;72529;51.786;4.662;2023-11-22T01:40:07;18.06;;;17.79;;
82787;SDS011;72529;51.786;4.662;2023-11-22T01:42:33;17.79;;;17.67;;
82787;SDS011;72529;51.786;4.662;2023-11-22T01:44:59;17.77;;;17.43;;
82787;SDS011;72529;51.786;4.662;2023-11-22T01:47:25;17.08;;;16.83;;
82787;SDS011;72529;51.786;4.662;2023-11-22T01:49:52;16.95;;;16.57;;
82787;SDS011;72529;51.786;4.662;2023-11-22T01:52:19;17.14;;;16.78;;
82787;SDS011;72529;51.786;4.662;2023-11-22T01:54:44;16.45;;;16.05;;
82787;SDS011;72529;51.786;4.662;2023-11-22T01:57:10;16.83;;;16.29;;
82787;SDS011;72529;51.786;4.662;2023-11-22T01:59:37;17.10;;;16.69;;
82787;SDS011;72529;51.786;4.662;2023-11-22T02:02:04;16.53;;;16.16;;
82787;SDS011;72529;51.786;4.662;2023-11-22T02:04:29;16.80;;;16.57;;
82787;SDS011;72529;51.786;4.662;2023-11-22T02:06:54;16.01;;;15.69;;
82787;SDS011;72529;51.786;4.662;2023-11-22T02:09:20;15.57;;;15.31;;
82787;SDS011;72529;51.786;4.662;2023-11-22T02:11:45;15.15;;;14.85;;
82787;SDS011;72529;51.786;4.662;2023-11-22T02:14:14;14.65;;;14.39;;
82787;SDS011;72529;51.786;4.662;2023-11-22T02:16:40;15.08;;;14.74;;
82787;SDS011;72529;51.786;4.662;2023-11-22T02:19:06;14.89;;;14.73;;
82787;SDS011;72529;51.786;4.662;2023-11-22T02:21:34;15.30;;;15.05;;
82787;SDS011;72529;51.786;4.662;2023-11-22T02:24:00;15.42;;;15.15;;
82787;SDS011;72529;51.786;4.662;2023-11-22T02:26:26;14.93;;;14.68;;
82787;SDS011;72529;51.786;4.662;2023-11-22T02:28:52;16.04;;;15.75;;
82787;SDS011;72529;51.786;4.662;2023-11-22T02:31:18;16.85;;;16.63;;
82787;SDS011;72529;51.786;4.662;2023-11-22T02:33:43;16.55;;;16.24;;
82787;SDS011;72529;51.786;4.662;2023-11-22T02:36:09;16.10;;;15.79;;
82787;SDS011;72529;51.786;4.662;2023-11-22T02:38:37;16.36;;;16.05;;
82787;SDS011;72529;51.786;4.662;2023-11-22T02:41:03;16.30;;;16.00;;
82787;SDS011;72529;51.786;4.662;2023-11-22T02:43:29;16.27;;;15.91;;
82787;SDS011;72529;51.786;4.662;2023-11-22T02:45:55;15.48;;;15.19;;
82787;SDS011;72529;51.786;4.662;2023-11-22T02:48:20;15.20;;;15.01;;
82787;SDS011;72529;51.786;4.662;2023-11-22T02:50:46;16.05;;;15.75;;
82787;SDS011;72529;51.786;4.662;2023-11-22T02:53:11;15.37;;;15.02;;
82787;SDS011;72529;51.786;4.662;2023-11-22T02:55:37;14.13;;;13.86;;
82787;SDS011;72529;51.786;4.662;2023-11-22T02:58:03;14.20;;;14.01;;
82787;SDS011;72529;51.786;4.662;2023-11-22T03:00:29;14.05;;;13.85;;
82787;SDS011;72529;51.786;4.662;2023-11-22T03:02:54;14.20;;;14.00;;
82787;SDS011;72529;51.786;4.662;2023-11-22T03:05:21;13.39;;;13.29;;
82787;SDS011;72529;51.786;4.662;2023-11-22T03:07:47;13.47;;;13.28;;
82787;SDS011;72529;51.786;4.662;2023-11-22T03:10:13;13.12;;;12.91;;
82787;SDS011;72529;51.786;4.662;2023-11-22T03:12:39;13.43;;;13.10;;
82787;SDS011;72529;51.786;4.662;2023-11-22T03:15:05;13.61;;;13.33;;
82787;SDS011;72529;51.786;4.662;2023-11-22T03:17:31;13.41;;;13.24;;
82787;SDS011;72529;51.786;4.662;2023-11-22T03:19:58;13.77;;;13.60;;
82787;SDS011;72529;51.786;4.662;2023-11-22T03:22:24;14.21;;;14.02;;
82787;SDS011;72529;51.786;4.662;2023-11-22T03:24:50;13.81;;;13.57;;
82787;SDS011;72529;51.786;4.662;2023-11-22T03:27:16;14.16;;;13.87;;
82787;SDS011;72529;51.786;4.662;2023-11-22T03:29:41;14.53;;;14.22;;
82787;SDS011;72529;51.786;4.662;2023-11-22T03:32:07;13.69;;;13.56;;
82787;SDS011;72529;51.786;4.662;2023-11-22T03:34:32;14.98;;;14.71;;
82787;SDS011;72529;51.786;4.662;2023-11-22T03:36:58;14.86;;;14.66;;
82787;SDS011;72529;51.786;4.662;2023-11-22T03:39:23;14.52;;;14.27;;
82787;SDS011;72529;51.786;4.662;2023-11-22T03:41:50;15.42;;;15.15;;
82787;SDS011;72529;51.786;4.662;2023-11-22T03:44:16;14.75;;;14.53;;
82787;SDS011;72529;51.786;4.662;2023-11-22T03:46:42;14.34;;;14.03;;
82787;SDS011;72529;51.786;4.662;2023-11-22T03:49:07;12.97;;;12.63;;
82787;SDS011;72529;51.786;4.662;2023-11-22T03:51:33;13.19;;;12.88;;
82787;SDS011;72529;51.786;4.662;2023-11-22T03:54:03;13.26;;;12.94;;
82787;SDS011;72529;51.786;4.662;2023-11-22T03:56:29;13.69;;;13.48;;
82787;SDS011;72529;51.786;4.662;2023-11-22T03:58:55;13.98;;;13.75;;
82787;SDS011;72529;51.786;4.662;2023-11-22T04:01:20;14.08;;;13.73;;
82787;SDS011;72529;51.786;4.662;2023-11-22T04:03:46;14.14;;;13.79;;
82787;SDS011;72529;51.786;4.662;2023-11-22T04:06:14;13.81;;;13.68;;
82787;SDS011;72529;51.786;4.662;2023-11-22T04:08:43;14.62;;;14.42;;
82787;SDS011;72529;51.786;4.662;2023-11-22T04:11:09;14.16;;;14.01;;
82787;SDS011;72529;51.786;4.662;2023-11-22T04:13:35;13.86;;;13.69;;
82787;SDS011;72529;51.786;4.662;2023-11-22T04:16:01;14.60;;;14.39;;
82787;SDS011;72529;51.786;4.662;2023-11-22T04:18:26;13.69;;;13.50;;
82787;SDS011;72529;51.786;4.662;2023-11-22T04:20:52;14.48;;;14.23;;
82787;SDS011;72529;51.786;4.662;2023-11-22T04:23:18;14.51;;;14.18;;
82787;SDS011;72529;51.786;4.662;2023-11-22T04:25:43;14.82;;;14.50;;
82787;SDS011;72529;51.786;4.662;2023-11-22T04:28:09;14.38;;;14.11;;
82787;SDS011;72529;51.786;4.662;2023-11-22T04:30:35;14.29;;;14.07;;
82787;SDS011;72529;51.786;4.662;2023-11-22T04:33:01;14.80;;;14.47;;
82787;SDS011;72529;51.786;4.662;2023-11-22T04:35:27;15.16;;;14.80;;
82787;SDS011;72529;51.786;4.662;2023-11-22T04:37:52;15.99;;;15.59;;
82787;SDS011;72529;51.786;4.662;2023-11-22T04:40:20;15.87;;;15.41;;
82787;SDS011;72529;51.786;4.662;2023-11-22T04:42:46;15.74;;;15.34;;
82787;SDS011;72529;51.786;4.662;2023-11-22T04:45:12;16.12;;;15.79;;
82787;SDS011;72529;51.786;4.662;2023-11-22T04:47:38;16.44;;;16.13;;
82787;SDS011;72529;51.786;4.662;2023-11-22T04:50:03;15.48;;;15.24;;
82787;SDS011;72529;51.786;4.662;2023-11-22T04:52:29;16.17;;;15.91;;
82787;SDS011;72529;51.786;4.662;2023-11-22T04:54:56;15.97;;;15.71;;
82787;SDS011;72529;51.786;4.662;2023-11-22T04:57:21;16.51;;;16.18;;
82787;SDS011;72529;51.786;4.662;2023-11-22T04:59:47;16.25;;;15.78;;
82787;SDS011;72529;51.786;4.662;2023-11-22T05:02:12;15.99;;;15.68;;
82787;SDS011;72529;51.786;4.662;2023-11-22T05:04:37;15.12;;;14.99;;
82787;SDS011;72529;51.786;4.662;2023-11-22T05:07:03;15.54;;;15.25;;
82787;SDS011;72529;51.786;4.662;2023-11-22T05:09:28;15.45;;;15.18;;
82787;SDS011;72529;51.786;4.662;2023-11-22T05:11:54;14.70;;;14.44;;
82787;SDS011;72529;51.786;4.662;2023-11-22T05:14:19;14.99;;;14.79;;
82787;SDS011;72529;51.786;4.662;2023-11-22T05:16:45;15.63;;;15.14;;
82787;SDS011;72529;51.786;4.662;2023-11-22T05:19:10;15.61;;;15.19;;
82787;SDS011;72529;51.786;4.662;2023-11-22T05:21:35;17.45;;;17.11;;
82787;SDS011;72529;51.786;4.662;2023-11-22T05:24:01;19.14;;;18.82;;
82787;SDS011;72529;51.786;4.662;2023-11-22T05:26:26;20.28;;;19.98;;
82787;SDS011;72529;51.786;4.662;2023-11-22T05:28:52;19.06;;;18.90;;
82787;SDS011;72529;51.786;4.662;2023-11-22T05:31:21;17.70;;;17.35;;
82787;SDS011;72529;51.786;4.662;2023-11-22T05:33:48;18.18;;;17.89;;
82787;SDS011;72529;51.786;4.662;2023-11-22T05:36:13;18.49;;;18.16;;
82787;SDS011;72529;51.786;4.662;2023-11-22T05:38:41;18.47;;;18.09;;
82787;SDS011;72529;51.786;4.662;2023-11-22T05:41:08;19.93;;;19.62;;
82787;SDS011;72529;51.786;4.662;2023-11-22T05:43:33;19.32;;;19.07;;
82787;SDS011;72529;51.786;4.662;2023-11-22T05:46:02;19.68;;;19.22;;
82787;SDS011;72529;51.786;4.662;2023-11-22T05:48:28;20.66;;;20.27;;
82787;SDS011;72529;51.786;4.662;2023-11-22T05:50:54;20.09;;;19.78;;
82787;SDS011;72529;51.786;4.662;2023-11-22T05:53:20;19.75;;;19.59;;
82787;SDS011;72529;51.786;4.662;2023-11-22T05:55:46;19.70;;;19.45;;
82787;SDS011;72529;51.786;4.662;2023-11-22T05:58:13;20.51;;;20.06;;
82787;SDS011;72529;51.786;4.662;2023-11-22T06:00:44;19.98;;;19.85;;
82787;SDS011;72529;51.786;4.662;2023-11-22T06:03:11;19.35;;;19.12;;
82787;SDS011;72529;51.786;4.662;2023-11-22T06:05:38;19.69;;;19.19;;
82787;SDS011;72529;51.786;4.662;2023-11-22T06:08:04;19.25;;;18.79;;
82787;SDS011;72529;51.786;4.662;2023-11-22T06:10:30;18.79;;;18.47;;
82787;SDS011;72529;51.786;4.662;2023-11-22T06:12:55;18.74;;;18.36;;
82787;SDS011;72529;51.786;4.662;2023-11-22T06:15:21;19.13;;;18.60;;
82787;SDS011;72529;51.786;4.662;2023-11-22T06:17:47;19.26;;;18.87;;
82787;SDS011;72529;51.786;4.662;2023-11-22T06:20:13;18.50;;;18.25;;
82787;SDS011;72529;51.786;4.662;2023-11-22T06:22:39;19.77;;;19.50;;
82787;SDS011;72529;51.786;4.662;2023-11-22T06:25:10;19.69;;;19.42;;
82787;SDS011;72529;51.786;4.662;2023-11-22T06:27:36;19.64;;;19.17;;
82787;SDS011;72529;51.786;4.662;2023-11-22T06:30:01;19.71;;;19.18;;
82787;SDS011;72529;51.786;4.662;2023-11-22T06:32:28;19.17;;;18.74;;
82787;SDS011;72529;51.786;4.662;2023-11-22T06:34:54;18.46;;;18.09;;
82787;SDS011;72529;51.786;4.662;2023-11-22T06:37:19;18.78;;;18.40;;
82787;SDS011;72529;51.786;4.662;2023-11-22T06:39:46;19.63;;;19.14;;
82787;SDS011;72529;51.786;4.662;2023-11-22T06:42:11;19.38;;;18.96;;
82787;SDS011;72529;51.786;4.662;2023-11-22T06:44:38;19.81;;;19.31;;
82787;SDS011;72529;51.786;4.662;2023-11-22T06:47:05;19.97;;;19.58;;
82787;SDS011;72529;51.786;4.662;2023-11-22T06:49:32;19.97;;;19.56;;
82787;SDS011;72529;51.786;4.662;2023-11-22T06:51:59;19.73;;;19.23;;
82787;SDS011;72529;51.786;4.662;2023-11-22T06:54:24;20.19;;;19.75;;
82787;SDS011;72529;51.786;4.662;2023-11-22T06:56:50;19.54;;;19.24;;
82787;SDS011;72529;51.786;4.662;2023-11-22T06:59:16;19.27;;;18.85;;
82787;SDS011;72529;51.786;4.662;2023-11-22T07:01:42;19.49;;;19.05;;
82787;SDS011;72529;51.786;4.662;2023-11-22T07:04:08;19.32;;;18.91;;
82787;SDS011;72529;51.786;4.662;2023-11-22T07:06:33;20.37;;;19.96;;
82787;SDS011;72529;51.786;4.662;2023-11-22T07:08:59;20.38;;;19.92;;
82787;SDS011;72529;51.786;4.662;2023-11-22T07:11:24;20.82;;;20.16;;
82787;SDS011;72529;51.786;4.662;2023-11-22T07:13:51;20.59;;;20.13;;
82787;SDS011;72529;51.786;4.662;2023-11-22T07:16:17;20.86;;;20.56;;
82787;SDS011;72529;51.786;4.662;2023-11-22T07:18:44;21.95;;;21.43;;
82787;SDS011;72529;51.786;4.662;2023-11-22T07:21:10;22.42;;;21.71;;
82787;SDS011;72529;51.786;4.662;2023-11-22T07:23:37;21.62;;;20.90;;
82787;SDS011;72529;51.786;4.662;2023-11-22T07:26:03;22.05;;;21.39;;
82787;SDS011;72529;51.786;4.662;2023-11-22T07:28:28;21.40;;;20.86;;
82787;SDS011;72529;51.786;4.662;2023-11-22T07:30:54;22.23;;;21.81;;
82787;SDS011;72529;51.786;4.662;2023-11-22T07:33:19;21.84;;;21.19;;
82787;SDS011;72529;51.786;4.662;2023-11-22T07:35:46;23.08;;;22.58;;
82787;SDS011;72529;51.786;4.662;2023-11-22T07:38:11;21.86;;;21.37;;
82787;SDS011;72529;51.786;4.662;2023-11-22T07:40:37;22.16;;;21.63;;
82787;SDS011;72529;51.786;4.662;2023-11-22T07:43:03;22.16;;;21.56;;
82787;SDS011;72529;51.786;4.662;2023-11-22T07:45:30;22.03;;;21.58;;
82787;SDS011;72529;51.786;4.662;2023-11-22T07:47:57;22.00;;;21.56;;
82787;SDS011;72529;51.786;4.662;2023-11-22T07:50:25;22.09;;;21.59;;
82787;SDS011;72529;51.786;4.662;2023-11-22T07:52:50;22.84;;;22.31;;
82787;SDS011;72529;51.786;4.662;2023-11-22T07:55:16;22.48;;;21.93;;
82787;SDS011;72529;51.786;4.662;2023-11-22T07:57:43;22.30;;;21.65;;
82787;SDS011;72529;51.786;4.662;2023-11-22T08:00:10;22.47;;;21.84;;
82787;SDS011;72529;51.786;4.662;2023-11-22T08:02:36;22.18;;;21.56;;
82787;SDS011;72529;51.786;4.662;2023-11-22T08:05:04;22.32;;;21.78;;
82787;SDS011;72529;51.786;4.662;2023-11-22T08:07:34;21.63;;;21.11;;
82787;SDS011;72529;51.786;4.662;2023-11-22T08:10:07;21.76;;;21.33;;
82787;SDS011;72529;51.786;4.662;2023-11-22T08:12:44;21.96;;;21.43;;
82787;SDS011;72529;51.786;4.662;2023-11-22T08:15:15;21.57;;;20.98;;
82787;SDS011;72529;51.786;4.662;2023-11-22T08:17:41;22.56;;;21.97;;
82787;SDS011;72529;51.786;4.662;2023-11-22T08:20:07;22.48;;;21.77;;
82787;SDS011;72529;51.786;4.662;2023-11-22T08:22:39;22.16;;;21.55;;
82787;SDS011;72529;51.786;4.662;2023-11-22T08:25:06;22.41;;;21.75;;
82787;SDS011;72529;51.786;4.662;2023-11-22T08:27:33;21.69;;;21.20;;
82787;SDS011;72529;51.786;4.662;2023-11-22T08:29:59;22.82;;;22.31;;
82787;SDS011;72529;51.786;4.662;2023-11-22T08:32:26;22.36;;;21.68;;
82787;SDS011;72529;51.786;4.662;2023-11-22T08:34:56;23.16;;;22.66;;
82787;SDS011;72529;51.786;4.662;2023-11-22T08:37:21;23.11;;;22.40;;
82787;SDS011;72529;51.786;4.662;2023-11-22T08:39:47;23.31;;;22.66;;
82787;SDS011;72529;51.786;4.662;2023-11-22T08:42:12;23.16;;;22.60;;
82787;SDS011;72529;51.786;4.662;2023-11-22T08:44:39;23.42;;;22.91;;
82787;SDS011;72529;51.786;4.662;2023-11-22T08:47:04;24.67;;;24.16;;
82787;SDS011;72529;51.786;4.662;2023-11-22T08:49:30;25.16;;;24.51;;
82787;SDS011;72529;51.786;4.662;2023-11-22T08:51:56;25.22;;;24.55;;
82787;SDS011;72529;51.786;4.662;2023-11-22T08:54:22;24.37;;;23.83;;
82787;SDS011;72529;51.786;4.662;2023-11-22T08:56:47;24.42;;;23.64;;
82787;SDS011;72529;51.786;4.662;2023-11-22T08:59:13;25.09;;;24.36;;
82787;SDS011;72529;51.786;4.662;2023-11-22T09:01:39;24.51;;;23.81;;
82787;SDS011;72529;51.786;4.662;2023-11-22T09:04:05;25.52;;;24.76;;
82787;SDS011;72529;51.786;4.662;2023-11-22T09:06:33;26.04;;;25.33;;
82787;SDS011;72529;51.786;4.662;2023-11-22T09:09:00;25.87;;;25.19;;
82787;SDS011;72529;51.786;4.662;2023-11-22T09:11:25;24.13;;;23.57;;
82787;SDS011;72529;51.786;4.662;2023-11-22T09:13:51;24.78;;;23.97;;
82787;SDS011;72529;51.786;4.662;2023-11-22T09:16:18;24.46;;;23.79;;
82787;SDS011;72529;51.786;4.662;2023-11-22T09:18:47;24.36;;;23.61;;
82787;SDS011;72529;51.786;4.662;2023-11-22T09:21:13;25.62;;;24.73;;
82787;SDS011;72529;51.786;4.662;2023-11-22T09:23:39;25.68;;;24.83;;
82787;SDS011;72529;51.786;4.662;2023-11-22T09:26:04;24.94;;;24.25;;
82787;SDS011;72529;51.786;4.662;2023-11-22T09:28:30;24.97;;;24.14;;
82787;SDS011;72529;51.786;4.662;2023-11-22T09:30:56;25.87;;;25.11;;
82787;SDS011;72529;51.786;4.662;2023-11-22T09:33:31;25.14;;;24.52;;
82787;SDS011;72529;51.786;4.662;2023-11-22T09:35:57;25.48;;;24.82;;
82787;SDS011;72529;51.786;4.662;2023-11-22T09:38:25;25.00;;;24.43;;
82787;SDS011;72529;51.786;4.662;2023-11-22T09:40:51;25.78;;;24.96;;
82787;SDS011;72529;51.786;4.662;2023-11-22T09:43:17;25.47;;;24.74;;
82787;SDS011;72529;51.786;4.662;2023-11-22T09:45:45;25.96;;;25.27;;
82787;SDS011;72529;51.786;4.662;2023-11-22T09:48:15;26.32;;;25.39;;
82787;SDS011;72529;51.786;4.662;2023-11-22T09:51:04;26.69;;;25.75;;
82787;SDS011;72529;51.786;4.662;2023-11-22T09:53:48;25.44;;;24.80;;
82787;SDS011;72529;51.786;4.662;2023-11-22T09:56:32;26.01;;;25.33;;
82787;SDS011;72529;51.786;4.662;2023-11-22T09:58:59;27.08;;;26.13;;
82787;SDS011;72529;51.786;4.662;2023-11-22T10:01:29;26.85;;;26.10;;
82787;SDS011;72529;51.786;4.662;2023-11-22T10:04:02;28.17;;;27.52;;
82787;SDS011;72529;51.786;4.662;2023-11-22T10:06:31;27.89;;;27.10;;
82787;SDS011;72529;51.786;4.662;2023-11-22T10:09:00;28.65;;;27.96;;
82787;SDS011;72529;51.786;4.662;2023-11-22T10:11:31;28.69;;;28.03;;
82787;SDS011;72529;51.786;4.662;2023-11-22T10:13:57;28.93;;;28.16;;
82787;SDS011;72529;51.786;4.662;2023-11-22T10:16:23;29.73;;;28.72;;
82787;SDS011;72529;51.786;4.662;2023-11-22T10:18:49;28.81;;;28.10;;
82787;SDS011;72529;51.786;4.662;2023-11-22T10:21:25;29.85;;;29.07;;
82787;SDS011;72529;51.786;4.662;2023-11-22T10:24:10;29.38;;;28.56;;
82787;SDS011;72529;51.786;4.662;2023-11-22T10:26:35;29.98;;;29.03;;
82787;SDS011;72529;51.786;4.662;2023-11-22T10:29:01;29.58;;;28.95;;
82787;SDS011;72529;51.786;4.662;2023-11-22T10:31:27;29.59;;;28.47;;
82787;SDS011;72529;51.786;4.662;2023-11-22T10:33:53;29.57;;;28.70;;
82787;SDS011;72529;51.786;4.662;2023-11-22T10:36:22;28.91;;;28.19;;
82787;SDS011;72529;51.786;4.662;2023-11-22T10:38:48;29.46;;;28.44;;
82787;SDS011;72529;51.786;4.662;2023-11-22T10:41:16;29.49;;;28.68;;
82787;SDS011;72529;51.786;4.662;2023-11-22T10:43:42;30.46;;;29.60;;
82787;SDS011;72529;51.786;4.662;2023-11-22T10:46:09;29.31;;;28.52;;
82787;SDS011;72529;51.786;4.662;2023-11-22T10:48:38;29.31;;;28.49;;
82787;SDS011;72529;51.786;4.662;2023-11-22T10:51:04;29.08;;;28.22;;
82787;SDS011;72529;51.786;4.662;2023-11-22T10:53:37;28.95;;;28.16;;
82787;SDS011;72529;51.786;4.662;2023-11-22T10:56:12;29.09;;;28.01;;
82787;SDS011;72529;51.786;4.662;2023-11-22T10:58:43;28.09;;;27.34;;
82787;SDS011;72529;51.786;4.662;2023-11-22T11:01:16;28.68;;;27.87;;
82787;SDS011;72529;51.786;4.662;2023-11-22T11:03:45;28.84;;;27.69;;
82787;SDS011;72529;51.786;4.662;2023-11-22T11:06:19;27.45;;;26.66;;
82787;SDS011;72529;51.786;4.662;2023-11-22T11:08:52;27.79;;;27.13;;
82787;SDS011;72529;51.786;4.662;2023-11-22T11:11:19;27.92;;;27.22;;
82787;SDS011;72529;51.786;4.662;2023-11-22T11:13:47;27.36;;;26.67;;
82787;SDS011;72529;51.786;4.662;2023-11-22T11:16:13;26.27;;;25.39;;
82787;SDS011;72529;51.786;4.662;2023-11-22T11:18:39;25.98;;;25.25;;
82787;SDS011;72529;51.786;4.662;2023-11-22T11:21:09;25.50;;;24.80;;
82787;SDS011;72529;51.786;4.662;2023-11-22T11:23:38;25.71;;;25.00;;
82787;SDS011;72529;51.786;4.662;2023-11-22T11:26:14;25.08;;;24.51;;
82787;SDS011;72529;51.786;4.662;2023-11-22T11:28:47;25.26;;;24.42;;
82787;SDS011;72529;51.786;4.662;2023-11-22T11:31:14;25.13;;;24.52;;
82787;SDS011;72529;51.786;4.662;2023-11-22T11:36:28;25.10;;;24.50;;
82787;SDS011;72529;51.786;4.662;2023-11-22T11:38:57;26.33;;;25.61;;
82787;SDS011;72529;51.786;4.662;2023-11-22T11:41:27;25.20;;;24.40;;
82787;SDS011;72529;51.786;4.662;2023-11-22T11:43:55;24.63;;;23.97;;
82787;SDS011;72529;51.786;4.662;2023-11-22T11:46:22;25.89;;;25.37;;
82787;SDS011;72529;51.786;4.662;2023-11-22T11:48:48;26.48;;;25.67;;
82787;SDS011;72529;51.786;4.662;2023-11-22T11:51:19;26.56;;;25.74;;
82787;SDS011;72529;51.786;4.662;2023-11-22T11:53:47;25.95;;;25.27;;
82787;SDS011;72529;51.786;4.662;2023-11-22T11:56:14;26.78;;;26.27;;
82787;SDS011;72529;51.786;4.662;2023-11-22T11:58:41;27.39;;;26.75;;
82787;SDS011;72529;51.786;4.662;2023-11-22T12:01:11;28.13;;;27.44;;
82787;SDS011;72529;51.786;4.662;2023-11-22T12:03:37;27.99;;;27.34;;
82787;SDS011;72529;51.786;4.662;2023-11-22T12:06:04;29.11;;;28.33;;
82787;SDS011;72529;51.786;4.662;2023-11-22T12:08:30;28.88;;;28.11;;
82787;SDS011;72529;51.786;4.662;2023-11-22T12:11:01;30.13;;;29.28;;
82787;SDS011;72529;51.786;4.662;2023-11-22T12:13:32;29.32;;;28.59;;
82787;SDS011;72529;51.786;4.662;2023-11-22T12:16:00;30.87;;;30.05;;
82787;SDS011;72529;51.786;4.662;2023-11-22T12:18:38;30.62;;;29.74;;
82787;SDS011;72529;51.786;4.662;2023-11-22T12:21:11;31.11;;;29.96;;
82787;SDS011;72529;51.786;4.662;2023-11-22T12:23:40;30.73;;;29.63;;
82787;SDS011;72529;51.786;4.662;2023-11-22T12:26:14;30.89;;;30.01;;
82787;SDS011;72529;51.786;4.662;2023-11-22T12:28:41;31.43;;;30.25;;
82787;SDS011;72529;51.786;4.662;2023-11-22T12:31:11;30.89;;;29.89;;
82787;SDS011;72529;51.786;4.662;2023-11-22T12:33:39;30.71;;;29.93;;
82787;SDS011;72529;51.786;4.662;2023-11-22T12:36:06;30.51;;;29.50;;
82787;SDS011;72529;51.786;4.662;2023-11-22T12:38:34;29.91;;;29.08;;
82787;SDS011;72529;51.786;4.662;2023-11-22T12:41:00;31.23;;;29.97;;
82787;SDS011;72529;51.786;4.662;2023-11-22T12:43:31;29.96;;;28.95;;
82787;SDS011;72529;51.786;4.662;2023-11-22T12:46:03;30.76;;;29.78;;
82787;SDS011;72529;51.786;4.662;2023-11-22T12:48:38;32.40;;;31.02;;
82787;SDS011;72529;51.786;4.662;2023-11-22T12:51:14;31.00;;;29.91;;
82787;SDS011;72529;51.786;4.662;2023-11-22T12:53:42;30.03;;;29.04;;
82787;SDS011;72529;51.786;4.662;2023-11-22T12:56:07;31.74;;;30.77;;
82787;SDS011;72529;51.786;4.662;2023-11-22T12:58:33;32.06;;;31.01;;
82787;SDS011;72529;51.786;4.662;2023-11-22T13:00:59;32.09;;;30.92;;
82787;SDS011;72529;51.786;4.662;2023-11-22T13:03:25;32.30;;;31.20;;
82787;SDS011;72529;51.786;4.662;2023-11-22T13:05:52;32.79;;;31.82;;
82787;SDS011;72529;51.786;4.662;2023-11-22T13:08:18;32.31;;;31.36;;
82787;SDS011;72529;51.786;4.662;2023-11-22T13:10:47;32.15;;;31.37;;
82787;SDS011;72529;51.786;4.662;2023-11-22T13:13:22;32.36;;;31.38;;
82787;SDS011;72529;51.786;4.662;2023-11-22T13:15:49;33.77;;;32.81;;
82787;SDS011;72529;51.786;4.662;2023-11-22T13:18:15;33.96;;;32.93;;
82787;SDS011;72529;51.786;4.662;2023-11-22T13:20:43;33.86;;;32.78;;
82787;SDS011;72529;51.786;4.662;2023-11-22T13:23:09;32.66;;;31.80;;
82787;SDS011;72529;51.786;4.662;2023-11-22T13:25:35;31.52;;;30.69;;
82787;SDS011;72529;51.786;4.662;2023-11-22T13:28:01;31.01;;;30.12;;
82787;SDS011;72529;51.786;4.662;2023-11-22T13:30:27;32.00;;;31.19;;
82787;SDS011;72529;51.786;4.662;2023-11-22T13:32:53;32.88;;;31.79;;
82787;SDS011;72529;51.786;4.662;2023-11-22T13:35:22;32.45;;;31.40;;
82787;SDS011;72529;51.786;4.662;2023-11-22T13:37:49;32.70;;;31.65;;
82787;SDS011;72529;51.786;4.662;2023-11-22T13:40:15;32.75;;;31.75;;
82787;SDS011;72529;51.786;4.662;2023-11-22T13:45:09;32.13;;;31.24;;
82787;SDS011;72529;51.786;4.662;2023-11-22T13:47:35;32.92;;;31.89;;
82787;SDS011;72529;51.786;4.662;2023-11-22T13:50:01;33.17;;;32.16;;
82787;SDS011;72529;51.786;4.662;2023-11-22T13:52:28;33.11;;;32.28;;
82787;SDS011;72529;51.786;4.662;2023-11-22T13:54:54;33.50;;;32.47;;
82787;SDS011;72529;51.786;4.662;2023-11-22T13:57:22;33.80;;;32.81;;
82787;SDS011;72529;51.786;4.662;2023-11-22T13:59:47;34.41;;;33.52;;
82787;SDS011;72529;51.786;4.662;2023-11-22T14:02:13;35.38;;;34.47;;
82787;SDS011;72529;51.786;4.662;2023-11-22T14:04:38;38.25;;;37.01;;
82787;SDS011;72529;51.786;4.662;2023-11-22T14:07:04;41.19;;;39.92;;
82787;SDS011;72529;51.786;4.662;2023-11-22T14:09:32;42.73;;;41.16;;
82787;SDS011;72529;51.786;4.662;2023-11-22T14:12:01;45.13;;;43.23;;
82787;SDS011;72529;51.786;4.662;2023-11-22T14:14:27;47.88;;;46.01;;
82787;SDS011;72529;51.786;4.662;2023-11-22T14:16:53;49.82;;;47.60;;
82787;SDS011;72529;51.786;4.662;2023-11-22T14:19:18;53.04;;;50.26;;
82787;SDS011;72529;51.786;4.662;2023-11-22T14:21:43;59.69;;;55.09;;
82787;SDS011;72529;51.786;4.662;2023-11-22T14:24:09;63.51;;;58.79;;